createdAt,value
2019-02-18T00:01:55.165Z,149.77
2019-02-18T00:04:25.705Z,142.10
2019-02-18T00:06:56.394Z,139.30
2019-02-18T00:09:29.415Z,145.17
2019-02-18T00:11:59.784Z,145.93
2019-02-18T00:14:30.528Z,141.33
2019-02-18T00:17:02.967Z,135.57
2019-02-18T00:19:33.615Z,130.53
2019-02-18T00:22:04.155Z,130.50
2019-02-18T00:24:38.090Z,135.43
2019-02-18T00:27:08.855Z,140.00
2019-02-18T00:29:39.411Z,134.23
2019-02-18T00:32:09.810Z,128.20
2019-02-18T00:34:40.927Z,124.60
2019-02-18T00:37:12.735Z,108.63
2019-02-18T00:39:43.229Z,120.73
2019-02-18T00:42:15.353Z,119.70
2019-02-18T00:44:47.345Z,110.80
2019-02-18T00:47:19.227Z,112.30
2019-02-18T00:49:50.163Z,115.35
2019-02-18T00:52:20.613Z,112.47
2019-02-18T00:54:53.041Z,116.20
2019-02-18T00:57:25.293Z,117.03
2019-02-18T00:59:55.939Z,120.33
2019-02-18T01:02:26.718Z,119.17
2019-02-18T01:04:57.272Z,122.57
2019-02-18T01:07:34.434Z,122.57
2019-02-18T01:10:00.874Z,113.80
2019-02-18T01:12:33.466Z,119.47
2019-02-18T01:15:05.065Z,116.47
2019-02-18T01:17:36.178Z,122.13
2019-02-18T01:20:08.802Z,117.67
2019-02-18T01:22:40.739Z,111.30
2019-02-18T01:25:12.325Z,118.33
2019-02-18T01:27:42.955Z,112.77
2019-02-18T01:30:15.605Z,118.05
2019-02-18T01:32:47.760Z,111.80
2019-02-18T01:35:18.184Z,100.83
2019-02-18T01:37:48.794Z,95.63
2019-02-18T01:40:19.429Z,96.23
2019-02-18T01:42:49.806Z,95.47
2019-02-18T01:45:20.329Z,98.00
2019-02-18T01:47:50.834Z,93.07
2019-02-18T01:50:22.889Z,100.92
2019-02-18T01:52:54.990Z,100.63
2019-02-18T01:55:25.441Z,105.27
2019-02-18T01:57:56.008Z,99.37
2019-02-18T02:00:27.935Z,102.83
2019-02-18T02:02:58.302Z,97.27
2019-02-18T02:05:30.674Z,105.77
2019-02-18T02:08:02.905Z,96.33
2019-02-18T02:10:33.691Z,97.77
2019-02-18T02:13:26.277Z,96.63
2019-02-18T02:15:57.221Z,103.33
2019-02-18T02:18:29.031Z,105.70
2019-02-18T02:20:59.616Z,98.37
2019-02-18T02:23:30.701Z,107.33
2019-02-18T02:26:01.260Z,106.50
2019-02-18T02:28:31.740Z,112.22
2019-02-18T02:31:02.488Z,107.77
2019-02-18T02:33:32.862Z,109.37
2019-02-18T02:36:05.147Z,109.77
2019-02-18T02:38:35.656Z,119.93
2019-02-18T02:41:06.204Z,120.40
2019-02-18T02:43:37.801Z,121.72
2019-02-18T02:46:08.469Z,122.07
2019-02-18T02:48:38.978Z,127.03
2019-02-18T02:51:09.567Z,127.80
2019-02-18T02:53:41.031Z,125.97
2019-02-18T02:56:11.609Z,125.27
2019-02-18T02:58:42.086Z,131.33
2019-02-18T03:01:12.811Z,133.15
2019-02-18T03:03:43.449Z,129.70
2019-02-18T03:06:13.842Z,125.50
2019-02-18T03:08:44.228Z,140.03
2019-02-18T03:11:17.283Z,141.00
2019-02-18T03:13:47.663Z,133.83
2019-02-18T03:16:19.775Z,141.90
2019-02-18T03:18:50.287Z,137.33
2019-02-18T03:21:21.170Z,145.87
2019-02-18T03:23:52.310Z,139.70
2019-02-18T03:26:22.801Z,141.47
2019-02-18T03:29:29.987Z,123.73
2019-02-18T03:32:01.387Z,131.57
2019-02-18T03:34:36.651Z,144.87
2019-02-18T03:37:07.174Z,141.30
2019-02-18T03:39:37.718Z,145.87
2019-02-18T03:42:08.293Z,145.03
2019-02-18T03:44:38.716Z,153.50
2019-02-18T03:47:09.404Z,166.83
2019-02-18T03:49:39.976Z,143.57
2019-02-18T03:52:11.065Z,147.53
2019-02-18T03:54:41.957Z,139.27
2019-02-18T03:57:14.335Z,142.80
2019-02-18T03:59:45.023Z,143.65
2019-02-18T04:02:15.659Z,141.32
2019-02-18T04:04:46.113Z,144.83
2019-02-18T04:07:16.511Z,154.77
2019-02-18T04:09:47.058Z,156.00
2019-02-18T04:12:18.657Z,155.83
2019-02-18T04:14:49.597Z,161.53
2019-02-18T04:17:20.458Z,176.05
2019-02-18T04:19:52.677Z,161.80
2019-02-18T04:22:23.356Z,173.60
2019-02-18T04:24:54.156Z,152.03
2019-02-18T04:27:25.214Z,143.17
2019-02-18T04:29:56.003Z,146.80
2019-02-18T04:32:26.547Z,146.10
2019-02-18T04:34:57.969Z,137.53
2019-02-18T04:37:28.510Z,140.00
2019-02-18T04:39:59.056Z,132.60
2019-02-18T04:42:29.596Z,140.40
2019-02-18T04:45:00.421Z,151.00
2019-02-18T04:47:31.224Z,159.57
2019-02-18T04:50:01.904Z,153.90
2019-02-18T04:52:33.027Z,161.77
2019-02-18T04:55:03.591Z,172.43
2019-02-18T04:57:34.286Z,172.63
2019-02-18T05:00:08.429Z,174.72
2019-02-18T05:02:38.542Z,171.60
2019-02-18T05:05:09.784Z,176.53
2019-02-18T05:07:40.303Z,163.60
2019-02-18T05:10:10.914Z,152.03
2019-02-18T05:12:42.967Z,151.87
2019-02-18T05:15:13.521Z,146.68
2019-02-18T05:17:44.223Z,159.72
2019-02-18T05:20:14.569Z,156.77
2019-02-18T05:22:45.296Z,155.70
2019-02-18T05:25:15.702Z,152.82
2019-02-18T05:27:46.195Z,141.33
2019-02-18T05:30:17.295Z,118.05
2019-02-18T05:32:48.377Z,149.40
2019-02-18T05:35:19.621Z,129.63
2019-02-18T05:37:50.297Z,110.57
2019-02-18T05:40:21.056Z,107.63
2019-02-18T05:42:52.049Z,107.73
2019-02-18T05:45:22.499Z,116.10
2019-02-18T05:47:53.056Z,108.78
2019-02-18T05:50:25.040Z,104.77
2019-02-18T05:52:56.023Z,106.67
2019-02-18T05:55:26.403Z,115.37
2019-02-18T05:57:56.857Z,118.20
2019-02-18T06:00:27.457Z,115.92
2019-02-18T06:02:58.220Z,115.63
2019-02-18T06:05:28.716Z,109.97
2019-02-18T06:08:00.929Z,107.83
2019-02-18T06:10:31.474Z,120.17
2019-02-18T06:13:04.389Z,125.20
2019-02-18T06:15:35.121Z,126.67
2019-02-18T06:18:06.335Z,110.03
2019-02-18T06:20:36.887Z,117.95
2019-02-18T06:23:07.517Z,110.07
2019-02-18T06:25:38.867Z,97.92
2019-02-18T06:28:10.526Z,105.30
2019-02-18T06:30:43.141Z,106.80
2019-02-18T06:33:15.111Z,95.00
2019-02-18T06:35:45.521Z,100.93
2019-02-18T06:38:16.065Z,112.52
2019-02-18T06:40:46.471Z,121.90
2019-02-18T06:43:16.984Z,120.92
2019-02-18T06:45:57.858Z,118.13
2019-02-18T06:48:37.380Z,118.13
2019-02-18T06:51:08.142Z,116.55
2019-02-18T06:53:38.921Z,119.40
2019-02-18T06:56:10.950Z,131.13
2019-02-18T06:58:50.691Z,140.70
2019-02-18T07:01:38.444Z,135.87
2019-02-18T07:04:27.841Z,147.97
2019-02-18T07:07:10.535Z,135.43
2019-02-18T07:10:00.683Z,127.63
2019-02-18T07:12:37.558Z,123.43
2019-02-18T07:15:08.795Z,116.03
2019-02-18T07:17:39.178Z,120.27
2019-02-18T07:20:09.679Z,108.85
2019-02-18T07:22:40.250Z,109.70
2019-02-18T07:25:11.651Z,112.30
2019-02-18T07:27:42.531Z,119.10
2019-02-18T07:30:15.470Z,109.67
2019-02-18T07:32:46.136Z,116.80
2019-02-18T07:35:17.269Z,124.50
2019-02-18T07:37:47.918Z,119.43
2019-02-18T07:40:18.716Z,113.93
2019-02-18T07:42:50.159Z,123.77
2019-02-18T07:45:20.810Z,129.15
2019-02-18T07:47:51.254Z,126.70
2019-02-18T07:50:22.780Z,123.82
2019-02-18T07:52:54.288Z,118.60
2019-02-18T07:55:26.333Z,120.13
2019-02-18T07:57:57.045Z,115.10
2019-02-18T08:00:28.999Z,119.83
2019-02-18T08:02:59.372Z,130.03
2019-02-18T08:05:29.778Z,127.33
2019-02-18T08:08:00.118Z,123.00
2019-02-18T08:10:31.772Z,128.07
2019-02-18T08:13:02.391Z,123.87
2019-02-18T08:15:34.159Z,130.57
2019-02-18T08:18:06.010Z,126.97
2019-02-18T08:20:36.507Z,119.47
2019-02-18T08:23:07.178Z,130.40
2019-02-18T08:25:38.061Z,124.17
2019-02-18T08:28:09.994Z,132.80
2019-02-18T08:30:40.796Z,137.73
2019-02-18T08:33:12.786Z,135.80
2019-02-18T08:35:43.377Z,129.67
2019-02-18T08:38:14.325Z,123.30
2019-02-18T08:40:44.815Z,134.03
2019-02-18T08:43:15.381Z,130.07
2019-02-18T08:45:47.440Z,128.63
2019-02-18T08:48:18.215Z,128.00
2019-02-18T08:50:48.564Z,117.40
2019-02-18T08:53:20.503Z,117.13
2019-02-18T08:55:51.701Z,122.63
2019-02-18T08:58:22.750Z,133.97
2019-02-18T09:01:02.325Z,120.87
2019-02-18T09:03:25.597Z,110.77
2019-02-18T09:05:57.800Z,103.37
2019-02-18T09:08:31.409Z,93.10
2019-02-18T09:11:03.381Z,98.10
2019-02-18T09:13:34.101Z,87.37
2019-02-18T09:16:04.743Z,91.50
2019-02-18T09:18:35.259Z,85.30
2019-02-18T09:21:06.448Z,78.95
2019-02-18T09:23:50.488Z,78.30
2019-02-18T09:26:21.045Z,75.93
2019-02-18T09:28:52.343Z,79.30
2019-02-18T09:31:29.109Z,81.90
2019-02-18T09:33:59.782Z,76.73
2019-02-18T09:36:30.181Z,72.17
2019-02-18T09:39:02.107Z,81.37
2019-02-18T09:41:33.629Z,71.03
2019-02-18T09:44:05.056Z,66.63
2019-02-18T09:46:36.086Z,69.33
2019-02-18T09:49:06.522Z,69.17
2019-02-18T09:51:37.005Z,71.47
2019-02-18T09:54:07.603Z,73.20
2019-02-18T09:56:38.213Z,69.63
2019-02-18T09:59:08.712Z,72.30
2019-02-18T10:01:40.091Z,59.93
2019-02-18T10:04:10.706Z,53.75
2019-02-18T10:06:43.626Z,58.73
2019-02-18T10:09:16.960Z,70.78
2019-02-18T10:11:47.532Z,69.97
2019-02-18T10:14:17.917Z,64.83
2019-02-18T10:16:48.285Z,74.60
2019-02-18T10:19:19.629Z,71.62
2019-02-18T10:21:50.337Z,65.23
2019-02-18T10:24:20.807Z,71.07
2019-02-18T10:26:52.178Z,74.97
2019-02-18T10:29:22.750Z,79.87
2019-02-18T10:31:53.783Z,72.50
2019-02-18T10:34:24.617Z,84.77
2019-02-18T10:36:56.462Z,82.20
2019-02-18T10:39:26.891Z,68.40
2019-02-18T10:41:58.258Z,62.50
2019-02-18T10:44:28.869Z,64.63
2019-02-18T10:47:01.172Z,63.13
2019-02-18T10:49:31.642Z,75.03
2019-02-18T10:52:02.153Z,68.67
2019-02-18T10:54:34.023Z,51.80
2019-02-18T10:57:04.734Z,53.53
2019-02-18T10:59:35.655Z,46.57
2019-02-18T11:02:07.375Z,47.50
2019-02-18T11:04:37.987Z,36.40
2019-02-18T11:07:08.512Z,38.40
2019-02-18T11:09:40.216Z,36.07
2019-02-18T11:12:10.804Z,40.08
2019-02-18T11:14:42.018Z,34.80
2019-02-18T11:17:13.925Z,36.00
2019-02-18T11:19:44.845Z,41.70
2019-02-18T11:22:15.384Z,41.77
2019-02-18T11:24:45.888Z,42.17
2019-02-18T11:27:16.613Z,40.80
2019-02-18T11:29:47.372Z,53.00
2019-02-18T11:32:19.046Z,47.43
2019-02-18T11:34:49.749Z,41.15
2019-02-18T11:37:21.181Z,44.40
2019-02-18T11:39:51.695Z,36.30
2019-02-18T11:42:23.506Z,39.30
2019-02-18T11:44:55.019Z,34.73
2019-02-18T11:47:26.066Z,36.67
2019-02-18T11:49:56.942Z,32.33
2019-02-18T11:52:28.024Z,32.30
2019-02-18T11:54:58.523Z,30.73
2019-02-18T11:57:31.596Z,30.05
2019-02-18T12:00:02.444Z,23.53
2019-02-18T12:04:10.819Z,25.40
2019-02-18T12:06:44.566Z,32.13
2019-02-18T12:09:14.692Z,25.50
2019-02-18T12:11:45.209Z,23.90
2019-02-18T12:14:16.108Z,27.77
2019-02-18T12:16:46.627Z,29.90
2019-02-18T12:19:18.768Z,34.75
2019-02-18T12:21:49.564Z,37.37
2019-02-18T12:24:21.497Z,30.07
2019-02-18T12:26:52.156Z,29.67
2019-02-18T12:29:26.435Z,30.33
2019-02-18T12:31:56.353Z,37.23
2019-02-18T12:34:26.793Z,40.10
2019-02-18T12:36:58.219Z,34.50
2019-02-18T12:39:30.304Z,36.47
2019-02-18T12:42:00.823Z,33.33
2019-02-18T12:44:33.017Z,32.30
2019-02-18T12:47:05.255Z,29.40
2019-02-18T12:49:37.782Z,29.37
2019-02-18T12:52:08.362Z,35.67
2019-02-18T12:54:40.671Z,36.83
2019-02-18T12:57:11.268Z,26.83
2019-02-18T12:59:41.900Z,27.77
2019-02-18T13:02:12.531Z,30.85
2019-02-18T13:04:42.924Z,29.83
2019-02-18T13:07:13.333Z,25.77
2019-02-18T13:09:45.710Z,30.73
2019-02-18T13:12:16.428Z,23.10
2019-02-18T13:14:47.216Z,30.07
2019-02-18T13:17:17.655Z,28.27
2019-02-18T13:19:48.545Z,21.73
2019-02-18T13:22:19.228Z,23.10
2019-02-18T13:24:49.847Z,21.10
2019-02-18T13:27:20.409Z,22.83
2019-02-18T13:29:54.248Z,21.30
2019-02-18T13:32:25.019Z,29.32
2019-02-18T13:34:57.421Z,19.20
2019-02-18T13:37:30.355Z,21.87
2019-02-18T13:40:00.763Z,18.60
2019-02-18T13:42:31.458Z,38.00
2019-02-18T13:45:04.093Z,15.87
2019-02-18T13:47:36.462Z,16.00
2019-02-18T13:50:08.234Z,19.33
2019-02-18T13:52:38.711Z,16.63
2019-02-18T13:55:09.766Z,16.43
2019-02-18T13:57:41.591Z,18.43
2019-02-18T14:00:19.175Z,17.17
2019-02-18T14:02:51.760Z,15.53
2019-02-18T14:05:22.453Z,15.98
2019-02-18T14:07:54.520Z,17.37
2019-02-18T14:10:25.224Z,16.67
2019-02-18T14:12:56.960Z,13.93
2019-02-18T14:15:27.339Z,16.32
2019-02-18T14:17:57.793Z,20.53
2019-02-18T14:20:28.487Z,14.23
2019-02-18T14:23:01.568Z,19.03
2019-02-18T14:25:32.080Z,22.10
2019-02-18T14:28:03.660Z,13.50
2019-02-18T14:30:34.746Z,18.03
2019-02-18T14:33:06.297Z,14.23
2019-02-18T14:35:37.307Z,16.77
2019-02-18T14:38:07.871Z,15.47
2019-02-18T14:40:38.441Z,15.40
2019-02-18T14:43:09.582Z,15.50
2019-02-18T14:45:40.226Z,14.90
2019-02-18T14:48:12.242Z,17.80
2019-02-18T14:50:43.112Z,16.67
2019-02-18T14:53:15.991Z,15.48
2019-02-18T14:55:46.457Z,18.90
2019-02-18T14:58:19.302Z,14.97
2019-02-18T15:00:50.319Z,17.37
2019-02-18T15:03:20.844Z,18.80
2019-02-18T15:05:51.374Z,22.10
2019-02-18T15:08:22.752Z,21.50
2019-02-18T15:10:53.285Z,23.07
2019-02-18T15:13:24.411Z,24.00
2019-02-18T15:15:56.469Z,25.77
2019-02-18T15:18:27.259Z,31.43
2019-02-18T15:20:57.750Z,30.03
2019-02-18T15:23:28.697Z,28.47
2019-02-18T15:26:02.376Z,32.87
2019-02-18T15:28:32.995Z,30.13
2019-02-18T15:31:06.208Z,27.47
2019-02-18T15:33:38.738Z,31.50
2019-02-18T15:36:09.387Z,29.20
2019-02-18T15:38:39.841Z,30.27
2019-02-18T15:41:10.759Z,32.30
2019-02-18T15:43:41.383Z,31.53
2019-02-18T15:46:12.438Z,35.92
2019-02-18T15:48:43.484Z,42.97
2019-02-18T15:51:13.984Z,33.57
2019-02-18T15:53:45.103Z,38.93
2019-02-18T15:56:15.737Z,35.65
2019-02-18T15:58:46.525Z,34.83
2019-02-18T16:01:16.940Z,35.13
2019-02-18T16:03:47.624Z,40.23
2019-02-18T16:06:18.480Z,43.07
2019-02-18T16:08:49.292Z,40.28
2019-02-18T16:11:19.752Z,38.10
2019-02-18T16:13:50.760Z,39.87
2019-02-18T16:16:21.198Z,41.00
2019-02-18T16:18:52.311Z,45.87
2019-02-18T16:21:22.889Z,39.87
2019-02-18T16:23:53.314Z,45.93
2019-02-18T16:26:23.652Z,39.17
2019-02-18T16:28:54.054Z,40.03
2019-02-18T16:31:24.385Z,41.80
2019-02-18T16:33:54.904Z,41.30
2019-02-18T16:36:25.343Z,41.17
2019-02-18T16:38:56.393Z,46.70
2019-02-18T16:41:26.742Z,43.10
2019-02-18T16:43:59.071Z,42.60
2019-02-18T16:46:29.876Z,44.97
2019-02-18T16:49:00.363Z,42.10
2019-02-18T16:51:30.985Z,48.97
2019-02-18T16:54:01.379Z,38.10
2019-02-18T16:56:31.799Z,47.80
2019-02-18T16:59:02.722Z,50.38
2019-02-18T17:01:33.216Z,42.07
2019-02-18T17:04:03.618Z,44.18
2019-02-18T17:06:34.252Z,38.97
2019-02-18T17:09:06.608Z,43.83
2019-02-18T17:11:37.087Z,46.20
2019-02-18T17:14:07.519Z,41.43
2019-02-18T17:16:37.974Z,44.80
2019-02-18T17:19:08.422Z,50.37
2019-02-18T17:21:38.779Z,45.43
2019-02-18T17:24:09.820Z,42.63
2019-02-18T17:26:40.586Z,46.83
2019-02-18T17:29:11.052Z,48.30
2019-02-18T17:31:41.406Z,45.07
2019-02-18T17:34:11.806Z,50.12
2019-02-18T17:36:43.128Z,41.07
2019-02-18T17:39:13.651Z,46.23
2019-02-18T17:41:43.997Z,47.10
2019-02-18T17:44:20.013Z,48.07
2019-02-18T17:46:47.912Z,48.30
2019-02-18T17:49:18.506Z,48.13
2019-02-18T17:51:49.253Z,46.47
2019-02-18T17:54:19.762Z,44.90
2019-02-18T17:56:50.122Z,46.70
2019-02-18T17:59:21.075Z,48.38
2019-02-18T18:01:51.553Z,49.70
2019-02-18T18:04:21.926Z,48.60
2019-02-18T18:06:52.706Z,45.50
2019-02-18T18:09:23.260Z,45.35
2019-02-18T18:11:53.655Z,50.10
2019-02-18T18:14:24.398Z,45.73
2019-02-18T18:16:54.946Z,47.07
2019-02-18T18:19:25.416Z,50.17
2019-02-18T18:21:55.909Z,54.27
2019-02-18T18:24:26.355Z,50.40
2019-02-18T18:26:57.210Z,52.87
2019-02-18T18:29:27.811Z,50.13
2019-02-18T18:31:58.242Z,49.37
2019-02-18T18:34:29.333Z,60.73
2019-02-18T18:36:59.797Z,51.77
2019-02-18T18:39:30.469Z,54.87
2019-02-18T18:42:00.918Z,56.55
2019-02-18T18:44:32.206Z,58.73
2019-02-18T18:47:02.881Z,56.27
2019-02-18T18:49:33.452Z,56.30
2019-02-18T18:52:03.861Z,62.03
2019-02-18T18:54:34.285Z,55.00
2019-02-18T18:57:05.451Z,54.93
2019-02-18T18:59:36.319Z,60.80
2019-02-18T19:02:06.991Z,60.73
2019-02-18T19:04:37.424Z,59.30
2019-02-18T19:07:08.061Z,64.73
2019-02-18T19:09:38.625Z,75.90
2019-02-18T19:12:09.072Z,71.73
2019-02-18T19:14:39.556Z,74.57
2019-02-18T19:17:09.902Z,67.43
2019-02-18T19:19:41.187Z,73.00
2019-02-18T19:22:11.481Z,70.55
2019-02-18T19:24:42.408Z,74.50
2019-02-18T19:27:12.823Z,77.53
2019-02-18T19:29:43.623Z,71.03
2019-02-18T19:32:14.155Z,83.87
2019-02-18T19:34:44.487Z,85.40
2019-02-18T19:37:15.164Z,79.35
2019-02-18T19:39:46.763Z,85.05
2019-02-18T19:42:17.227Z,88.72
2019-02-18T19:44:47.678Z,88.93
2019-02-18T19:47:18.242Z,84.90
2019-02-18T19:49:48.546Z,92.73
2019-02-18T19:52:19.354Z,101.43
2019-02-18T19:54:49.758Z,100.78
2019-02-18T19:57:20.189Z,99.70
2019-02-18T19:59:50.643Z,100.93
2019-02-18T20:02:21.175Z,108.20
2019-02-18T20:04:51.958Z,104.40
2019-02-18T20:07:22.478Z,101.90
2019-02-18T20:09:52.867Z,104.57
2019-02-18T20:12:23.360Z,100.30
2019-02-18T20:14:53.876Z,102.17
2019-02-18T20:17:24.405Z,105.10
2019-02-18T20:19:54.881Z,91.70
2019-02-18T20:22:25.256Z,101.33
2019-02-18T20:24:55.729Z,98.57
2019-02-18T20:27:26.366Z,101.43
2019-02-18T20:29:58.274Z,107.37
2019-02-18T20:32:28.708Z,103.83
2019-02-18T20:34:59.136Z,99.40
2019-02-18T20:37:29.593Z,101.77
2019-02-18T20:40:00.795Z,99.57
2019-02-18T20:42:31.389Z,105.73
2019-02-18T20:45:02.020Z,114.07
2019-02-18T20:47:33.654Z,111.85
2019-02-18T20:50:04.189Z,107.03
2019-02-18T20:52:34.512Z,106.25
2019-02-18T20:55:06.398Z,109.37
2019-02-18T20:57:38.195Z,113.27
2019-02-18T21:00:14.459Z,118.97
2019-02-18T21:02:44.928Z,117.33
2019-02-18T21:05:15.527Z,120.70
2019-02-18T21:07:46.046Z,121.93
2019-02-18T21:10:17.163Z,133.47
2019-02-18T21:12:47.703Z,134.17
2019-02-18T21:15:18.144Z,142.43
2019-02-18T21:17:48.836Z,146.53
2019-02-18T21:20:19.262Z,148.10
2019-02-18T21:22:49.989Z,152.27
2019-02-18T21:25:20.580Z,150.93
2019-02-18T21:27:50.932Z,149.83
2019-02-18T21:30:21.691Z,150.57
2019-02-18T21:32:52.054Z,142.80
2019-02-18T21:35:22.752Z,149.37
2019-02-18T21:37:53.117Z,153.77
2019-02-18T21:40:23.669Z,151.25
2019-02-18T21:42:54.323Z,149.27
2019-02-18T21:45:26.374Z,140.23
2019-02-18T21:47:56.872Z,155.67
2019-02-18T21:50:27.211Z,151.33
2019-02-18T21:52:57.601Z,160.12
2019-02-18T21:55:27.979Z,163.57
2019-02-18T21:57:58.536Z,155.03
2019-02-18T22:00:29.955Z,159.10
2019-02-18T22:03:00.726Z,157.40
2019-02-18T22:05:32.670Z,155.60
2019-02-18T22:08:12.906Z,162.83
2019-02-18T22:10:43.430Z,160.77
2019-02-18T22:13:14.124Z,148.80
2019-02-18T22:15:44.916Z,140.80
2019-02-18T22:18:15.653Z,156.22
2019-02-18T22:20:46.221Z,158.27
2019-02-18T22:23:17.367Z,165.60
2019-02-18T22:25:48.230Z,158.67
2019-02-18T22:28:18.671Z,119.00
2019-02-18T22:30:49.148Z,140.37
2019-02-18T22:33:19.728Z,149.37
2019-02-18T22:35:51.488Z,156.63
2019-02-18T22:38:22.363Z,149.27
2019-02-18T22:40:52.828Z,154.47
2019-02-18T22:43:23.839Z,138.33
2019-02-18T22:45:55.965Z,151.47
2019-02-18T22:48:27.042Z,158.47
2019-02-18T22:50:57.631Z,159.00
2019-02-18T22:53:28.923Z,159.10
2019-02-18T22:55:59.826Z,172.33
2019-02-18T22:58:30.667Z,163.23
2019-02-18T23:01:02.968Z,156.50
2019-02-18T23:03:35.334Z,160.30
2019-02-18T23:06:06.859Z,165.00
2019-02-18T23:08:41.076Z,165.57
2019-02-18T23:11:11.544Z,157.43
2019-02-18T23:13:42.068Z,151.20
2019-02-18T23:16:12.458Z,151.30
2019-02-18T23:18:43.047Z,148.90
2019-02-18T23:21:13.829Z,145.55
2019-02-18T23:23:45.270Z,146.03
2019-02-18T23:26:16.272Z,137.53
2019-02-18T23:28:47.401Z,152.97
2019-02-18T23:31:20.570Z,141.80
2019-02-18T23:33:51.161Z,133.87
2019-02-18T23:36:22.055Z,124.90
2019-02-18T23:38:52.613Z,129.40
2019-02-18T23:41:24.551Z,107.57
2019-02-18T23:43:58.620Z,119.47
2019-02-18T23:46:29.443Z,124.33
2019-02-18T23:49:01.236Z,122.57
2019-02-18T23:51:31.676Z,134.75
2019-02-18T23:54:04.474Z,128.97
2019-02-18T23:59:31.147Z,113.50
